createdAt,value
2022-10-31T00:01:37.767Z,3.72
2022-10-31T00:04:06.599Z,3.60
2022-10-31T00:06:34.507Z,2.85
2022-10-31T00:09:04.582Z,3.47
2022-10-31T00:11:32.930Z,4.03
2022-10-31T00:14:00.834Z,3.00
2022-10-31T00:16:29.533Z,3.85
2022-10-31T00:19:00.275Z,3.08
2022-10-31T00:21:29.153Z,2.60
2022-10-31T00:23:59.273Z,3.67
2022-10-31T00:26:29.043Z,3.28
2022-10-31T00:28:56.748Z,3.75
2022-10-31T00:31:24.480Z,3.97
2022-10-31T00:33:52.423Z,3.63
2022-10-31T00:36:21.606Z,3.08
2022-10-31T00:38:49.866Z,3.40
2022-10-31T00:41:18.731Z,2.75
2022-10-31T00:43:46.399Z,3.00
2022-10-31T00:46:14.688Z,3.20
2022-10-31T00:48:42.888Z,2.97
2022-10-31T00:51:10.739Z,3.65
2022-10-31T00:53:38.343Z,3.10
2022-10-31T00:56:06.828Z,3.45
2022-10-31T00:58:34.664Z,3.58
2022-10-31T01:01:03.631Z,4.30
2022-10-31T01:03:36.561Z,3.00
2022-10-31T01:06:07.551Z,2.97
2022-10-31T01:08:36.536Z,3.38
2022-10-31T01:11:20.860Z,3.60
2022-10-31T01:13:50.925Z,3.00
2022-10-31T01:16:25.351Z,3.33
2022-10-31T01:18:53.299Z,3.58
2022-10-31T01:21:26.255Z,3.28
2022-10-31T01:23:55.332Z,3.50
2022-10-31T01:26:28.677Z,3.47
2022-10-31T01:29:01.155Z,4.45
2022-10-31T01:31:35.847Z,3.50
2022-10-31T01:34:04.526Z,3.00
2022-10-31T01:36:35.190Z,2.80
2022-10-31T01:39:06.405Z,2.92
2022-10-31T01:41:37.117Z,3.15
2022-10-31T01:44:25.980Z,2.85
2022-10-31T01:47:02.192Z,2.88
2022-10-31T01:49:52.343Z,3.00
2022-10-31T01:52:37.550Z,2.70
2022-10-31T01:55:12.978Z,4.22
2022-10-31T01:57:45.084Z,3.80
2022-10-31T02:00:14.011Z,3.17
2022-10-31T02:02:42.873Z,3.35
2022-10-31T02:05:16.739Z,3.08
2022-10-31T02:07:52.103Z,2.95
2022-10-31T02:10:22.029Z,3.15
2022-10-31T02:12:55.580Z,3.78
2022-10-31T02:15:23.647Z,3.15
2022-10-31T02:17:53.213Z,3.50
2022-10-31T02:20:24.294Z,3.28
2022-10-31T02:23:01.149Z,3.22
2022-10-31T02:25:57.186Z,2.85
2022-10-31T02:28:56.811Z,3.35
2022-10-31T02:31:36.497Z,3.72
2022-10-31T02:34:24.093Z,3.17
2022-10-31T02:37:07.003Z,2.75
2022-10-31T02:40:00.373Z,3.45
2022-10-31T02:43:03.795Z,2.88
2022-10-31T02:45:46.925Z,2.67
2022-10-31T02:48:20.809Z,3.20
2022-10-31T02:50:56.701Z,4.03
2022-10-31T02:53:24.313Z,3.33
2022-10-31T02:55:54.867Z,3.42
2022-10-31T02:58:25.881Z,2.78
2022-10-31T03:01:30.848Z,2.60
2022-10-31T03:04:13.342Z,2.83
2022-10-31T03:07:05.049Z,2.67
2022-10-31T03:09:59.843Z,3.45
2022-10-31T03:12:48.979Z,2.50
2022-10-31T03:15:31.351Z,2.95
2022-10-31T03:18:07.988Z,2.65
2022-10-31T03:20:47.434Z,3.03
2022-10-31T03:23:17.249Z,2.28
2022-10-31T03:25:50.277Z,2.78
2022-10-31T03:28:23.292Z,2.60
2022-10-31T03:30:53.984Z,2.80
2022-10-31T03:33:27.261Z,2.78
2022-10-31T03:35:59.577Z,2.53
2022-10-31T03:38:27.918Z,2.65
2022-10-31T03:40:59.031Z,3.30
2022-10-31T03:43:33.359Z,2.67
2022-10-31T03:46:01.138Z,3.13
2022-10-31T03:48:29.159Z,3.38
2022-10-31T03:51:06.317Z,2.60
2022-10-31T03:53:48.989Z,3.00
2022-10-31T03:56:36.211Z,3.47
2022-10-31T03:59:18.747Z,3.15
2022-10-31T04:01:51.561Z,2.65
2022-10-31T04:04:20.721Z,2.80
2022-10-31T04:06:52.487Z,3.08
2022-10-31T04:09:21.687Z,2.13
2022-10-31T04:11:55.073Z,3.00
2022-10-31T04:14:40.944Z,3.08
2022-10-31T04:17:14.022Z,2.70
2022-10-31T04:19:43.431Z,4.05
2022-10-31T04:22:11.547Z,2.35
2022-10-31T04:24:41.107Z,2.30
2022-10-31T04:27:10.160Z,2.85
2022-10-31T04:29:38.278Z,2.70
2022-10-31T04:32:06.202Z,3.00
2022-10-31T04:34:35.150Z,2.97
2022-10-31T04:37:03.056Z,2.60
2022-10-31T04:39:32.873Z,2.78
2022-10-31T04:42:34.209Z,2.95
2022-10-31T04:45:05.468Z,3.63
2022-10-31T04:47:36.943Z,2.92
2022-10-31T04:50:05.565Z,2.90
2022-10-31T04:52:47.783Z,2.30
2022-10-31T04:55:19.333Z,2.67
2022-10-31T04:58:08.184Z,2.00
2022-10-31T05:00:37.641Z,2.67
2022-10-31T05:03:06.391Z,1.85
2022-10-31T05:05:34.867Z,2.15
2022-10-31T05:08:05.191Z,2.83
2022-10-31T05:10:33.804Z,2.42
2022-10-31T05:13:04.509Z,3.03
2022-10-31T05:15:33.079Z,2.15
2022-10-31T05:18:19.404Z,2.42
2022-10-31T05:20:56.017Z,2.55
2022-10-31T05:23:36.324Z,1.75
2022-10-31T05:26:06.405Z,3.78
2022-10-31T05:28:35.155Z,2.35
2022-10-31T05:31:05.582Z,1.88
2022-10-31T05:33:36.455Z,2.47
2022-10-31T05:36:12.745Z,2.45
2022-10-31T05:38:49.634Z,3.10
2022-10-31T05:41:30.692Z,2.15
2022-10-31T05:44:24.943Z,2.70
2022-10-31T05:47:14.271Z,2.90
2022-10-31T05:50:14.327Z,2.92
2022-10-31T05:53:04.031Z,2.67
2022-10-31T05:55:44.731Z,2.67
2022-10-31T05:58:21.706Z,2.50
2022-10-31T06:01:01.718Z,3.00
2022-10-31T06:03:32.705Z,2.30
2022-10-31T06:06:09.530Z,2.38
2022-10-31T06:08:41.724Z,2.22
2022-10-31T06:11:15.652Z,2.03
2022-10-31T06:14:02.136Z,2.08
2022-10-31T06:16:57.377Z,3.60
2022-10-31T06:19:56.969Z,2.78
2022-10-31T06:22:27.722Z,5.40
2022-10-31T06:24:56.316Z,3.83
2022-10-31T06:27:46.573Z,2.95
2022-10-31T06:30:16.064Z,3.78
2022-10-31T06:32:46.307Z,3.95
2022-10-31T06:35:14.296Z,3.17
2022-10-31T06:37:45.588Z,3.30
2022-10-31T06:40:29.753Z,2.60
2022-10-31T06:43:18.038Z,3.65
2022-10-31T06:45:48.705Z,2.55
2022-10-31T06:48:25.764Z,2.53
2022-10-31T06:51:13.895Z,2.42
2022-10-31T06:53:41.777Z,3.28
2022-10-31T06:56:13.815Z,2.45
2022-10-31T06:58:49.409Z,3.05
2022-10-31T07:01:20.208Z,3.95
2022-10-31T07:03:49.697Z,4.97
2022-10-31T07:09:28.882Z,4.30
2022-10-31T07:11:59.086Z,3.60
2022-10-31T07:14:27.006Z,4.82
2022-10-31T07:16:54.899Z,2.88
2022-10-31T07:19:34.537Z,2.85
2022-10-31T07:22:06.663Z,3.08
2022-10-31T07:24:35.407Z,2.88
2022-10-31T07:27:26.477Z,2.95
2022-10-31T07:30:19.922Z,2.60
2022-10-31T07:32:53.040Z,2.25
2022-10-31T07:35:28.918Z,2.20
2022-10-31T07:38:09.093Z,2.38
2022-10-31T07:40:40.611Z,2.53
2022-10-31T07:43:15.522Z,2.33
2022-10-31T07:46:09.258Z,2.40
2022-10-31T07:48:57.191Z,2.08
2022-10-31T07:51:46.508Z,1.75
2022-10-31T07:55:15.806Z,1.98
2022-10-31T07:58:16.807Z,1.88
2022-10-31T08:00:46.993Z,2.35
2022-10-31T08:03:20.098Z,2.28
2022-10-31T08:06:08.162Z,3.15
2022-10-31T08:08:56.417Z,2.30
2022-10-31T08:11:26.736Z,1.85
2022-10-31T08:13:54.387Z,2.22
2022-10-31T08:16:22.279Z,2.08
2022-10-31T08:18:57.874Z,1.80
2022-10-31T08:21:25.538Z,2.50
2022-10-31T08:23:53.282Z,2.30
2022-10-31T08:26:24.320Z,2.28
2022-10-31T08:28:55.713Z,2.47
2022-10-31T08:31:32.913Z,2.03
2022-10-31T08:34:19.999Z,2.75
2022-10-31T08:37:06.187Z,2.88
2022-10-31T08:39:41.754Z,2.53
2022-10-31T08:42:09.495Z,2.42
2022-10-31T08:44:37.107Z,2.17
2022-10-31T08:47:05.438Z,2.55
2022-10-31T08:49:37.356Z,1.77
2022-10-31T08:52:10.682Z,1.63
2022-10-31T08:54:42.270Z,2.30
2022-10-31T08:57:38.968Z,2.17
2022-10-31T09:00:09.222Z,1.42
2022-10-31T09:03:01.117Z,2.47
2022-10-31T09:05:31.794Z,2.10
2022-10-31T09:08:01.545Z,2.28
2022-10-31T09:10:34.330Z,2.80
2022-10-31T09:13:10.984Z,1.55
2022-10-31T09:15:59.684Z,2.70
2022-10-31T09:18:32.750Z,2.08
2022-10-31T09:21:01.572Z,2.40
2022-10-31T09:23:32.151Z,2.50
2022-10-31T09:26:05.116Z,2.30
2022-10-31T09:28:41.959Z,1.98
2022-10-31T09:31:12.418Z,1.70
2022-10-31T09:34:07.674Z,2.13
2022-10-31T09:36:47.047Z,2.25
2022-10-31T09:39:22.604Z,2.10
2022-10-31T09:42:27.149Z,2.47
2022-10-31T09:45:21.610Z,2.47
2022-10-31T09:48:22.248Z,2.25
2022-10-31T09:51:21.977Z,2.13
2022-10-31T09:54:21.530Z,1.58
2022-10-31T09:56:49.673Z,2.10
2022-10-31T09:59:34.665Z,2.13
2022-10-31T10:02:04.732Z,2.17
2022-10-31T10:04:41.703Z,2.08
2022-10-31T10:07:33.510Z,2.20
2022-10-31T10:10:37.318Z,2.53
2022-10-31T10:13:32.818Z,2.05
2022-10-31T10:16:12.232Z,1.95
2022-10-31T10:19:06.892Z,2.17
2022-10-31T10:22:12.994Z,1.85
2022-10-31T10:24:59.440Z,1.45
2022-10-31T10:27:27.173Z,2.08
2022-10-31T10:30:18.968Z,2.00
2022-10-31T10:32:55.636Z,1.50
2022-10-31T10:37:59.587Z,1.73
2022-10-31T10:40:29.375Z,1.52
2022-10-31T10:43:24.920Z,1.85
2022-10-31T10:46:32.800Z,1.73
2022-10-31T10:49:21.381Z,1.90
2022-10-31T10:55:38.315Z,2.00
2022-10-31T10:58:12.916Z,2.17
2022-10-31T11:00:45.188Z,1.75
2022-10-31T11:03:24.479Z,2.20
2022-10-31T11:06:32.324Z,1.60
2022-10-31T11:09:11.589Z,2.35
2022-10-31T11:11:40.799Z,2.10
2022-10-31T11:17:24.273Z,1.98
2022-10-31T11:20:21.542Z,2.05
2022-10-31T11:23:06.546Z,2.22
2022-10-31T11:25:34.533Z,2.17
2022-10-31T11:28:10.396Z,1.58
2022-10-31T11:30:47.326Z,2.42
2022-10-31T11:33:38.459Z,2.00
2022-10-31T11:36:31.236Z,1.40
2022-10-31T11:39:01.178Z,1.67
2022-10-31T11:41:45.107Z,1.50
2022-10-31T11:44:23.564Z,1.33
2022-10-31T11:47:00.331Z,1.30
2022-10-31T11:49:35.204Z,2.28
2022-10-31T11:52:09.799Z,1.85
2022-10-31T11:54:56.715Z,1.77
2022-10-31T11:57:32.683Z,1.60
2022-10-31T12:00:05.959Z,1.70
2022-10-31T12:02:43.008Z,1.25
2022-10-31T12:05:26.812Z,1.52
2022-10-31T12:07:54.762Z,2.38
2022-10-31T12:10:31.405Z,1.27
2022-10-31T12:13:37.590Z,1.80
2022-10-31T12:16:23.680Z,2.03
2022-10-31T12:19:07.424Z,1.52
2022-10-31T12:22:03.209Z,1.20
2022-10-31T12:25:02.588Z,1.83
2022-10-31T12:27:36.185Z,1.90
2022-10-31T12:30:24.459Z,2.27
2022-10-31T12:33:49.922Z,1.20
2022-10-31T12:36:30.379Z,1.40
2022-10-31T12:39:03.664Z,1.85
2022-10-31T12:41:56.727Z,1.85
2022-10-31T12:44:36.459Z,1.80
2022-10-31T12:47:22.064Z,2.00
2022-10-31T12:49:49.735Z,1.95
2022-10-31T12:52:36.401Z,1.40
2022-10-31T12:55:19.542Z,2.45
2022-10-31T12:57:53.988Z,2.63
2022-10-31T13:00:25.268Z,2.25
2022-10-31T13:03:25.692Z,1.98
2022-10-31T13:06:03.428Z,1.52
2022-10-31T13:08:42.133Z,1.65
2022-10-31T13:11:18.139Z,1.25
2022-10-31T13:14:09.094Z,1.85
2022-10-31T13:16:41.159Z,2.08
2022-10-31T13:19:18.295Z,1.85
2022-10-31T13:22:00.464Z,1.83
2022-10-31T13:25:10.881Z,7.30
2022-10-31T13:28:03.908Z,2.20
2022-10-31T13:30:37.678Z,2.22
2022-10-31T13:33:23.950Z,1.80
2022-10-31T13:36:00.914Z,1.73
2022-10-31T13:38:53.597Z,2.97
2022-10-31T13:41:48.187Z,2.00
2022-10-31T13:44:26.359Z,2.03
2022-10-31T13:46:56.305Z,3.40
2022-10-31T13:49:30.022Z,2.55
2022-10-31T13:52:13.513Z,2.85
2022-10-31T13:54:49.895Z,3.00
2022-10-31T13:57:34.016Z,2.63
2022-10-31T14:00:36.022Z,5.10
2022-10-31T14:03:04.778Z,5.35
2022-10-31T14:05:36.940Z,3.45
2022-10-31T14:08:07.529Z,2.28
2022-10-31T14:10:48.459Z,2.55
2022-10-31T14:13:30.932Z,3.00
2022-10-31T14:16:04.267Z,1.98
2022-10-31T14:18:40.662Z,2.22
2022-10-31T14:21:29.650Z,2.17
2022-10-31T14:23:58.587Z,2.30
2022-10-31T14:27:06.258Z,10.13
2022-10-31T14:29:35.059Z,9.15
2022-10-31T14:32:13.612Z,3.78
2022-10-31T14:34:45.331Z,3.60
2022-10-31T14:37:22.208Z,2.75
2022-10-31T14:40:11.937Z,2.25
2022-10-31T14:42:42.643Z,2.08
2022-10-31T14:45:16.640Z,2.53
2022-10-31T14:48:10.316Z,4.30
2022-10-31T14:50:41.363Z,2.33
2022-10-31T14:53:18.519Z,2.72
2022-10-31T14:55:51.164Z,2.90
2022-10-31T14:58:24.621Z,2.22
2022-10-31T15:00:56.954Z,3.30
2022-10-31T15:03:31.419Z,2.22
2022-10-31T15:06:02.651Z,2.63
2022-10-31T15:08:41.071Z,2.47
2022-10-31T15:11:20.981Z,2.08
2022-10-31T15:13:51.073Z,2.60
2022-10-31T15:16:27.513Z,2.97
2022-10-31T15:19:03.888Z,5.93
2022-10-31T15:21:33.778Z,6.68
2022-10-31T15:24:04.676Z,11.45
2022-10-31T15:26:43.145Z,9.07
2022-10-31T15:29:16.163Z,6.03
2022-10-31T15:32:00.031Z,5.60
2022-10-31T15:34:43.662Z,4.28
2022-10-31T15:37:14.854Z,4.65
2022-10-31T15:39:44.055Z,3.10
2022-10-31T15:42:24.304Z,2.20
2022-10-31T15:45:15.194Z,2.78
2022-10-31T15:47:58.699Z,3.13
2022-10-31T15:50:26.582Z,3.28
2022-10-31T15:52:54.538Z,3.85
2022-10-31T15:55:25.109Z,3.05
2022-10-31T15:57:56.168Z,2.95
2022-10-31T16:00:29.865Z,2.58
2022-10-31T16:03:25.758Z,3.08
2022-10-31T16:05:59.515Z,2.67
2022-10-31T16:08:29.853Z,1.67
2022-10-31T16:11:19.430Z,2.92
2022-10-31T16:14:03.020Z,2.67
2022-10-31T16:16:36.172Z,3.13
2022-10-31T16:19:08.203Z,3.25
2022-10-31T16:21:40.557Z,3.63
2022-10-31T16:24:31.349Z,3.53
2022-10-31T16:27:05.383Z,3.70
2022-10-31T16:29:38.609Z,5.90
2022-10-31T16:32:06.368Z,4.30
2022-10-31T16:34:34.381Z,6.38
2022-10-31T16:37:03.687Z,7.78
2022-10-31T16:39:31.480Z,7.07
2022-10-31T16:41:59.224Z,6.55
2022-10-31T16:44:28.556Z,3.65
2022-10-31T16:47:15.467Z,4.70
2022-10-31T16:49:47.448Z,5.50
2022-10-31T16:52:31.469Z,4.20
2022-10-31T16:55:11.105Z,3.88
2022-10-31T16:57:39.033Z,3.45
2022-10-31T17:00:10.500Z,4.90
2022-10-31T17:02:39.088Z,5.35
2022-10-31T17:05:57.106Z,9.65
2022-10-31T17:08:55.600Z,6.68
2022-10-31T17:11:28.411Z,4.55
2022-10-31T17:14:00.766Z,4.43
2022-10-31T17:16:28.563Z,3.42
2022-10-31T17:18:56.441Z,5.50
2022-10-31T17:21:25.600Z,4.60
2022-10-31T17:23:53.516Z,4.28
2022-10-31T17:26:21.621Z,4.65
2022-10-31T17:28:49.442Z,5.15
2022-10-31T17:31:30.638Z,8.77
2022-10-31T17:34:02.702Z,8.77
2022-10-31T17:36:32.546Z,3.90
2022-10-31T17:39:00.958Z,3.78
2022-10-31T17:41:28.733Z,3.25
2022-10-31T17:43:57.403Z,3.25
2022-10-31T17:46:26.528Z,3.08
2022-10-31T17:48:54.221Z,3.50
2022-10-31T17:51:21.849Z,3.90
2022-10-31T17:53:49.596Z,2.25
2022-10-31T17:56:17.220Z,3.45
2022-10-31T17:58:44.845Z,2.85
2022-10-31T18:01:15.994Z,3.10
2022-10-31T18:03:44.037Z,2.90
2022-10-31T18:06:14.463Z,2.60
2022-10-31T18:08:43.919Z,2.95
2022-10-31T18:11:18.217Z,2.60
2022-10-31T18:13:45.863Z,2.85
2022-10-31T18:16:16.464Z,2.47
2022-10-31T18:18:52.128Z,2.92
2022-10-31T18:21:20.880Z,2.45
2022-10-31T18:23:48.670Z,2.85
2022-10-31T18:26:16.502Z,3.67
2022-10-31T18:28:44.157Z,5.20
2022-10-31T18:31:24.211Z,3.97
2022-10-31T18:33:54.677Z,3.92
2022-10-31T18:36:23.429Z,2.85
2022-10-31T18:38:51.089Z,3.05
2022-10-31T18:41:18.856Z,3.00
2022-10-31T18:43:49.525Z,3.22
2022-10-31T18:46:18.569Z,2.88
2022-10-31T18:48:46.597Z,3.33
2022-10-31T18:51:14.839Z,3.70
2022-10-31T18:53:46.895Z,3.42
2022-10-31T18:56:19.255Z,3.22
2022-10-31T18:58:47.446Z,3.80
2022-10-31T19:01:16.606Z,4.35
2022-10-31T19:03:44.890Z,3.30
2022-10-31T19:06:12.913Z,3.60
2022-10-31T19:08:40.596Z,3.80
2022-10-31T19:11:13.754Z,3.55
2022-10-31T19:13:43.167Z,3.25
2022-10-31T19:16:16.991Z,4.22
2022-10-31T19:18:45.064Z,4.00
2022-10-31T19:21:15.327Z,3.25
2022-10-31T19:23:46.367Z,4.18
2022-10-31T19:26:16.991Z,3.60
2022-10-31T19:28:45.007Z,3.45
2022-10-31T19:31:15.287Z,3.72
2022-10-31T19:33:42.853Z,3.55
2022-10-31T19:36:13.541Z,3.97
2022-10-31T19:38:43.964Z,3.80
2022-10-31T19:41:24.514Z,3.17
2022-10-31T19:43:53.542Z,3.65
2022-10-31T19:46:52.977Z,4.13
2022-10-31T19:49:13.812Z,3.72
2022-10-31T19:51:44.032Z,3.05
2022-10-31T19:54:12.509Z,3.58
2022-10-31T19:56:40.211Z,5.95
2022-10-31T19:59:08.203Z,3.53
2022-10-31T20:01:35.948Z,4.63
2022-10-31T20:04:10.946Z,3.38
2022-10-31T20:06:41.445Z,3.67
2022-10-31T20:09:13.568Z,3.38
2022-10-31T20:11:43.749Z,3.10
2022-10-31T20:14:16.138Z,4.70
2022-10-31T20:16:45.714Z,3.90
2022-10-31T20:19:13.526Z,3.58
2022-10-31T20:21:43.401Z,3.20
2022-10-31T20:24:36.961Z,3.08
2022-10-31T20:30:29.629Z,2.65
2022-10-31T20:32:57.771Z,3.50
2022-10-31T20:35:30.666Z,4.05
2022-10-31T20:38:05.655Z,3.30
2022-10-31T20:40:34.522Z,4.50
2022-10-31T20:43:03.820Z,4.70
2022-10-31T20:45:32.506Z,3.55
2022-10-31T20:48:00.655Z,3.47
2022-10-31T20:50:32.012Z,3.08
2022-10-31T20:53:00.036Z,3.05
2022-10-31T20:55:27.886Z,3.17
2022-10-31T20:57:55.504Z,3.10
2022-10-31T21:00:23.212Z,3.33
2022-10-31T21:02:50.909Z,3.17
2022-10-31T21:05:21.759Z,2.75
2022-10-31T21:07:52.020Z,2.53
2022-10-31T21:10:19.931Z,2.92
2022-10-31T21:12:47.610Z,2.75
2022-10-31T21:15:15.468Z,2.42
2022-10-31T21:17:43.161Z,2.97
2022-10-31T21:20:11.246Z,3.50
2022-10-31T21:22:39.502Z,2.90
2022-10-31T21:25:07.733Z,3.40
2022-10-31T21:27:35.605Z,3.78
2022-10-31T21:30:03.743Z,3.42
2022-10-31T21:32:31.552Z,2.78
2022-10-31T21:34:59.182Z,2.67
2022-10-31T21:37:26.778Z,2.78
2022-10-31T21:39:54.447Z,1.98
2022-10-31T21:42:27.766Z,2.17
2022-10-31T21:44:55.447Z,2.55
2022-10-31T21:47:23.443Z,2.38
2022-10-31T21:49:51.177Z,1.75
2022-10-31T21:52:18.768Z,2.15
2022-10-31T21:54:46.341Z,1.60
2022-10-31T21:57:30.857Z,2.53
2022-10-31T22:00:35.195Z,2.00
2022-10-31T22:03:19.585Z,1.70
2022-10-31T22:09:26.683Z,2.50
2022-10-31T22:12:28.497Z,2.53
2022-10-31T22:18:36.275Z,1.75
2022-10-31T22:21:25.414Z,2.50
2022-10-31T22:24:24.345Z,2.10
2022-10-31T22:30:10.319Z,3.63
2022-10-31T22:33:51.734Z,1.40
2022-10-31T22:36:33.543Z,2.20
2022-10-31T22:39:21.552Z,2.42
2022-10-31T22:42:03.073Z,1.73
2022-10-31T22:45:05.892Z,2.05
2022-10-31T22:47:50.209Z,2.97
2022-10-31T22:50:26.262Z,1.75
2022-10-31T22:53:16.208Z,2.35
2022-10-31T22:55:53.932Z,2.38
2022-10-31T23:01:22.262Z,1.80
2022-10-31T23:03:50.584Z,1.63
2022-10-31T23:06:21.343Z,2.80
2022-10-31T23:08:50.011Z,1.50
2022-10-31T23:11:18.583Z,1.77
2022-10-31T23:14:06.695Z,2.10
2022-10-31T23:16:40.928Z,2.25
2022-10-31T23:19:10.172Z,1.75
2022-10-31T23:21:55.329Z,2.25
2022-10-31T23:24:25.192Z,2.22
2022-10-31T23:27:09.461Z,1.33
2022-10-31T23:29:38.972Z,1.65
2022-10-31T23:32:10.398Z,1.80
2022-10-31T23:34:38.191Z,2.22
2022-10-31T23:39:38.783Z,2.40
2022-10-31T23:42:11.410Z,2.20
2022-10-31T23:44:40.026Z,1.65
2022-10-31T23:47:08.328Z,1.65
2022-10-31T23:49:36.063Z,2.28
2022-10-31T23:52:04.506Z,2.22
2022-10-31T23:54:32.924Z,1.70
2022-10-31T23:57:01.720Z,1.70
2022-10-31T23:59:29.629Z,1.55
